Bookmark and Share
Track history (hours):
 

Heroic Leader

Last reported at 2014-Apr-16 18:05 UTC. Time now 2014-Apr-20 03:16 UTC.
Position N 21°53' E 113°49'.

Length 200 m; draft 8 m.

Type: Cargo ship. MMSI: 311052700.

NotesDate/timePositionNaut miles runAvg speedWind from/ knotsBaromVisibWave heightAir tempDewpointWater temp
2014-Apr-16 18:05N 21°53' E 113°49'814.0
2014-Apr-16 17:33N 22°00' E 113°52'1211.9
2014-Apr-16 16:33N 22°11' E 113°47'1514.6
2014-Apr-16 15:33N 22°26' E 113°45'1413.7
2014-Apr-16 14:33N 22°39' E 113°42'3 0.2
2014-Apr-16 02:27N 22°42' E 113°41'1313.3
2014-Apr-16 01:29N 22°30' E 113°45'1414.7
2014-Apr-16 00:33N 22°16' E 113°48'10 9.9
2014-Apr-15 23:33N 22°06' E 113°48'4 3.9
2014-Apr-15 22:28N 22°04' E 113°52'0 0.1
2014-Apr-15 21:28N 22°04' E 113°52'0 0.0
2014-Apr-15 20:22N 22°04' E 113°52'0 0.0
2014-Apr-15 19:10N 22°04' E 113°52'0 0.0
2014-Apr-15 17:22N 22°04' E 113°52'0 0.0
2014-Apr-15 16:22N 22°04' E 113°52'0 0.1
2014-Apr-15 15:28N 22°04' E 113°52'0 0.0
2014-Apr-15 09:34N 22°04' E 113°52'0 0.0
2014-Apr-15 08:34N 22°04' E 113°52'0 0.0
2014-Apr-15 07:33N 22°04' E 113°52'0 0.0
2014-Apr-15 06:31N 22°04' E 113°52'0 0.0
2014-Apr-15 05:32N 22°04' E 113°52'0 0.1
2014-Apr-15 03:33N 22°04' E 113°52'9 9.1
2014-Apr-15 02:33N 21°55' E 113°51'  
2014-Apr-11 10:20N 01°13' E 103°56'810.2
2014-Apr-11 09:31N 01°13' E 103°48'5 5.2
2014-Apr-11 08:33N 01°17' E 103°45'0 0.0
2014-Apr-11 07:18N 01°17' E 103°45'0 0.0
2014-Apr-11 06:33N 01°17' E 103°45'0 0.0
2014-Apr-11 05:33N 01°17' E 103°45'0 0.0
2014-Apr-11 04:33N 01°17' E 103°45'0 0.0
2014-Apr-11 03:33N 01°17' E 103°45'0 0.0
2014-Apr-11 02:27N 01°17' E 103°45'0 0.0
2014-Apr-11 01:28N 01°17' E 103°45'2 2.7
2014-Apr-11 00:34N 01°15' E 103°45'1010.1
2014-Apr-10 23:34N 01°12' E 103°35'6 5.8
2014-Apr-10 22:34N 01°10' E 103°30'4 3.9
2014-Apr-10 21:30N 01°11' E 103°26'  

Dump ship's entire track history

sailing weather and tide predictions

Heroic Leader — C6ZD2 — position and weather